createdAt,value
2023-02-15T00:03:53.647Z,22.60
2023-02-15T00:10:35.900Z,25.58
2023-02-15T00:17:18.240Z,22.63
2023-02-15T00:24:05.016Z,28.90
2023-02-15T00:30:47.389Z,25.25
2023-02-15T00:37:29.843Z,23.70
2023-02-15T00:44:12.532Z,20.92
2023-02-15T00:50:58.517Z,26.63
2023-02-15T00:57:40.958Z,20.45
2023-02-15T01:04:23.260Z,24.70
2023-02-15T01:11:09.493Z,20.83
2023-02-15T01:17:53.837Z,26.25
2023-02-15T01:24:37.552Z,23.88
2023-02-15T01:31:22.689Z,24.65
2023-02-15T01:45:04.196Z,25.50
2023-02-15T01:51:49.843Z,26.05
2023-02-15T01:58:35.146Z,31.48
2023-02-15T02:05:19.343Z,31.33
2023-02-15T02:12:02.407Z,28.95
2023-02-15T02:19:34.181Z,26.23
2023-02-15T02:34:32.292Z,26.65
2023-02-15T02:42:00.765Z,28.35
2023-02-15T02:48:43.355Z,30.95
2023-02-15T02:56:02.895Z,27.98
2023-02-15T03:02:48.429Z,56.72
2023-02-15T03:16:29.455Z,30.17
2023-02-15T03:23:18.859Z,27.77
2023-02-15T03:30:03.368Z,30.90
2023-02-15T03:37:20.585Z,28.77
2023-02-15T03:44:14.824Z,28.33
2023-02-15T03:51:23.589Z,26.37
2023-02-15T03:58:24.991Z,28.25
2023-02-15T04:05:07.488Z,28.42
2023-02-15T04:11:50.080Z,29.63
2023-02-15T04:18:55.800Z,25.55
2023-02-15T04:25:38.263Z,23.05
2023-02-15T04:32:20.792Z,24.13
2023-02-15T04:39:19.817Z,27.58
2023-02-15T04:46:02.595Z,30.65
2023-02-15T04:52:45.073Z,24.42
2023-02-15T04:59:27.476Z,24.67
2023-02-15T05:06:09.921Z,23.15
2023-02-15T05:12:52.359Z,25.13
2023-02-15T05:19:34.556Z,29.65
2023-02-15T05:26:43.554Z,26.00
2023-02-15T05:33:25.977Z,29.67
2023-02-15T05:40:09.351Z,24.73
2023-02-15T05:46:51.838Z,29.73
2023-02-15T05:53:37.982Z,33.33
2023-02-15T06:00:20.831Z,24.27
2023-02-15T06:07:03.315Z,29.30
2023-02-15T06:13:45.931Z,31.33
2023-02-15T06:20:28.489Z,58.92
2023-02-15T06:27:11.864Z,40.17
2023-02-15T06:34:01.797Z,32.42
2023-02-15T06:40:44.212Z,33.00
2023-02-15T06:47:27.534Z,34.67
2023-02-15T07:01:56.571Z,51.78
2023-02-15T07:08:40.384Z,42.15
2023-02-15T07:15:23.203Z,45.00
2023-02-15T07:22:06.065Z,44.20
2023-02-15T07:28:48.706Z,49.08
2023-02-15T07:35:31.014Z,45.38
2023-02-15T07:42:13.622Z,44.83
2023-02-15T07:48:57.431Z,61.83
2023-02-15T07:55:39.900Z,43.97
2023-02-15T08:02:22.792Z,41.38
2023-02-15T08:09:11.566Z,40.92
2023-02-15T08:15:53.844Z,38.25
2023-02-15T08:22:36.038Z,33.22
2023-02-15T08:29:29.025Z,33.45
2023-02-15T08:36:17.819Z,44.83
2023-02-15T08:43:00.278Z,31.92
2023-02-15T08:49:45.247Z,33.42
2023-02-15T08:56:35.857Z,29.70
2023-02-15T09:03:18.755Z,28.92
2023-02-15T09:10:04.219Z,31.55
2023-02-15T09:16:50.050Z,39.28
2023-02-15T09:23:32.548Z,49.75
2023-02-15T09:30:15.298Z,45.60
2023-02-15T09:36:57.947Z,47.20
2023-02-15T10:30:02.147Z,32.67
2023-02-15T10:37:18.075Z,27.60
2023-02-15T10:44:43.621Z,27.05
2023-02-15T10:51:59.179Z,56.33
2023-02-15T10:58:59.969Z,36.60
2023-02-15T11:06:13.361Z,28.55
2023-02-15T11:12:58.948Z,31.08
2023-02-15T11:20:22.917Z,31.55
2023-02-15T11:27:16.078Z,30.47
2023-02-15T11:34:14.535Z,28.85
2023-02-15T11:41:15.954Z,30.05
2023-02-15T11:48:02.738Z,31.63
2023-02-15T11:54:51.115Z,37.35
2023-02-15T12:01:38.910Z,51.65
2023-02-15T12:08:22.878Z,36.35
2023-02-15T12:15:09.844Z,35.38
2023-02-15T12:21:54.108Z,71.97
2023-02-15T12:28:45.819Z,46.45
2023-02-15T12:35:36.040Z,72.70
2023-02-15T12:42:20.615Z,32.83
2023-02-15T12:49:21.186Z,38.13
2023-02-15T12:56:08.205Z,42.25
2023-02-15T13:02:55.992Z,43.15
2023-02-15T13:09:40.886Z,43.13
2023-02-15T13:16:40.777Z,49.22
2023-02-15T13:23:30.559Z,33.40
2023-02-15T13:30:43.174Z,36.88
2023-02-15T13:38:09.758Z,38.00
2023-02-15T13:45:31.555Z,40.90
2023-02-15T13:52:26.082Z,31.30
2023-02-15T13:59:41.524Z,30.73
2023-02-15T14:07:06.461Z,33.78
2023-02-15T14:14:23.410Z,46.35
2023-02-15T14:21:26.653Z,67.72
2023-02-15T14:28:18.467Z,47.17
2023-02-15T14:35:04.486Z,49.45
2023-02-15T14:41:57.939Z,49.20
2023-02-15T14:48:49.372Z,58.35
2023-02-15T14:55:38.328Z,52.78
2023-02-15T15:02:43.571Z,54.50
2023-02-15T15:09:31.889Z,61.40
2023-02-15T15:16:37.142Z,60.63
2023-02-15T15:23:19.372Z,93.68
2023-02-15T15:30:02.498Z,111.55
2023-02-15T15:37:22.857Z,100.57
2023-02-15T15:44:27.137Z,63.92
2023-02-15T15:51:20.692Z,90.07
2023-02-15T15:58:07.194Z,63.92
2023-02-15T16:04:49.480Z,75.05
2023-02-15T16:11:32.508Z,82.50
2023-02-15T16:18:18.419Z,72.47
2023-02-15T16:25:43.731Z,72.43
2023-02-15T16:32:28.212Z,82.35
2023-02-15T16:39:19.947Z,52.78
2023-02-15T16:46:21.644Z,78.75
2023-02-15T16:53:07.493Z,102.57
2023-02-15T16:59:53.376Z,109.45
2023-02-15T17:06:36.769Z,96.32
2023-02-15T17:13:19.202Z,104.68
2023-02-15T17:20:01.454Z,69.43
2023-02-15T17:26:43.732Z,77.18
2023-02-15T17:33:36.469Z,66.70
2023-02-15T17:40:33.872Z,63.13
2023-02-15T17:47:23.337Z,58.58
2023-02-15T17:54:24.553Z,72.28
2023-02-15T18:01:38.587Z,67.10
2023-02-15T18:08:46.165Z,67.65
2023-02-15T18:15:28.606Z,68.03
2023-02-15T18:22:19.422Z,57.88
2023-02-15T18:29:01.618Z,53.20
2023-02-15T18:35:44.716Z,64.95
2023-02-15T18:42:31.457Z,62.30
2023-02-15T18:49:13.751Z,64.22
2023-02-15T18:55:56.087Z,76.47
2023-02-15T19:02:39.138Z,92.95
2023-02-15T19:09:24.616Z,90.85
2023-02-15T19:16:08.850Z,70.95
2023-02-15T19:22:53.388Z,69.03
2023-02-15T19:29:36.589Z,69.50
2023-02-15T19:36:21.531Z,73.95
2023-02-15T19:43:10.412Z,69.65
2023-02-15T19:49:52.685Z,74.18
2023-02-15T19:56:34.970Z,81.63
2023-02-15T20:03:17.684Z,86.00
2023-02-15T20:09:59.916Z,80.03
2023-02-15T20:16:42.468Z,92.15
2023-02-15T20:23:31.310Z,96.82
2023-02-15T20:30:26.928Z,97.15
2023-02-15T20:37:23.877Z,83.78
2023-02-15T20:44:26.120Z,90.90
2023-02-15T20:51:20.382Z,90.47
2023-02-15T20:58:03.534Z,100.85
2023-02-15T21:04:46.078Z,98.65
2023-02-15T21:11:28.353Z,89.78
2023-02-15T21:18:31.509Z,101.70
2023-02-15T21:25:33.035Z,93.97
2023-02-15T21:32:15.508Z,91.70
2023-02-15T21:38:57.839Z,81.25
2023-02-15T21:45:58.945Z,81.72
2023-02-15T21:52:41.144Z,81.80
2023-02-15T21:59:23.419Z,82.38
2023-02-15T22:06:06.221Z,103.47
2023-02-15T22:12:56.396Z,95.80
2023-02-15T22:19:38.820Z,101.47
2023-02-15T22:26:25.011Z,99.07
2023-02-15T22:33:20.485Z,97.93
2023-02-15T22:40:02.774Z,98.32
2023-02-15T22:46:45.081Z,92.35
2023-02-15T22:53:27.398Z,97.28
2023-02-15T23:00:18.080Z,93.53
2023-02-15T23:07:01.047Z,93.45
2023-02-15T23:13:43.592Z,89.75
2023-02-15T23:20:26.165Z,87.45
2023-02-15T23:27:36.035Z,87.00
2023-02-15T23:34:29.628Z,90.07
2023-02-15T23:41:21.730Z,93.07
2023-02-15T23:48:22.976Z,86.80
2023-02-15T23:55:05.690Z,94.45
